シドニー の空港の天気 - METARとTAF

シドニー国際空港 ( YSSY / SYD ) - オーストラリア ニューサウスウェールズ州、Mascot
飛行場実況気象(Metar)
観測時間07/21 08:00 AEST (07/20 22:00 UTC)
風向・風速西 8m/s
視程10km以上
天気現象
少しの雲 雲底高度 1220m
全天の4割程度の雲 雲底高度 1680m
気温9℃
湿度57%
気圧1020hPa
METARYSSY 202200Z 27015KT 9999 FEW040 SCT055 09/01 Q1020 FM2200 MOD TURB BLW 5000FT
過去の天気等 Google飛行場航空写真 Wunderground天気予報

過去48時間のMETAR

飛行場予報(TAF)
発表時間: 7/21 02:39 AEST (7/20 16:39 UTC)
予報対象時間: 21日4時 AEST ~ 22日10時 AEST
風向・風速西南西 8m/s
視程10km以上
全天の4割程度の雲 雲底高度 1,220m
21日10時 AEST から
風向・風速南南西 9m/s
視程10km以上
なし
21日19時 AEST から
風向・風速南西 4m/s
視程10km以上
なし
22日0時 AEST から
風向・風速西北西 4m/s
視程10km以上
なし
TAF YSSY 201639Z 2018/2124 25015KT 9999 SCT040
FM210000 21018KT CAVOK
FM210900 23008KT CAVOK
FM211400 29008KT CAVOK